createdAt,value
2022-08-17T00:00:34.523Z,84.57
2022-08-17T00:03:10.635Z,83.49
2022-08-17T00:05:47.275Z,83.50
2022-08-17T00:08:16.800Z,84.36
2022-08-17T00:10:45.332Z,83.33
2022-08-17T00:13:16.746Z,84.57
2022-08-17T00:15:44.889Z,83.80
2022-08-17T00:19:01.792Z,84.00
2022-08-17T00:20:59.743Z,83.56
2022-08-17T00:23:27.646Z,83.58
2022-08-17T00:25:54.928Z,82.91
2022-08-17T00:28:21.782Z,82.28
2022-08-17T00:30:53.033Z,84.58
2022-08-17T00:33:26.048Z,83.61
2022-08-17T00:35:54.002Z,84.33
2022-08-17T00:38:21.556Z,84.14
2022-08-17T00:40:55.837Z,82.96
2022-08-17T00:43:28.790Z,83.60
2022-08-17T00:45:56.493Z,84.04
2022-08-17T00:48:23.828Z,83.40
2022-08-17T00:51:18.905Z,82.84
2022-08-17T00:53:51.935Z,84.58
2022-08-17T00:56:24.217Z,85.02
2022-08-17T00:58:52.351Z,84.13
2022-08-17T01:01:21.537Z,85.61
2022-08-17T01:03:50.890Z,82.88
2022-08-17T01:06:17.979Z,83.88
2022-08-17T01:08:44.952Z,85.16
2022-08-17T01:11:11.733Z,84.50
2022-08-17T01:13:42.645Z,84.80
2022-08-17T01:16:24.425Z,84.09
2022-08-17T01:18:54.366Z,83.70
2022-08-17T01:21:38.001Z,84.80
2022-08-17T01:24:04.950Z,84.55
2022-08-17T01:26:33.113Z,84.60
2022-08-17T01:29:00.827Z,84.55
2022-08-17T01:31:33.292Z,83.42
2022-08-17T01:34:02.746Z,83.30
2022-08-17T01:36:29.601Z,84.19
2022-08-17T01:38:56.602Z,84.87
2022-08-17T01:41:23.949Z,84.97
2022-08-17T01:44:02.850Z,84.21
2022-08-17T01:46:34.579Z,85.68
2022-08-17T01:49:02.009Z,84.98
2022-08-17T01:51:32.818Z,84.91
2022-08-17T01:54:20.264Z,84.46
2022-08-17T01:56:50.129Z,83.76
2022-08-17T01:59:19.380Z,83.39
2022-08-17T02:01:47.578Z,84.70
2022-08-17T02:04:15.052Z,84.40
2022-08-17T02:06:52.859Z,83.00
2022-08-17T02:09:24.043Z,84.83
2022-08-17T02:11:54.102Z,84.12
2022-08-17T02:14:21.735Z,82.99
2022-08-17T02:16:48.551Z,83.00
2022-08-17T02:19:16.136Z,83.33
2022-08-17T02:21:44.737Z,81.85
2022-08-17T02:24:17.161Z,82.63
2022-08-17T02:26:44.026Z,83.31
2022-08-17T02:29:10.757Z,83.92
2022-08-17T02:31:37.921Z,83.55
2022-08-17T02:34:05.312Z,83.41
2022-08-17T02:36:34.366Z,84.84
2022-08-17T02:39:03.963Z,85.05
2022-08-17T02:41:31.073Z,85.29
2022-08-17T02:43:57.850Z,85.12
2022-08-17T02:46:24.680Z,84.76
2022-08-17T02:48:51.483Z,84.42
2022-08-17T02:51:18.388Z,84.72
2022-08-17T02:53:45.161Z,84.70
2022-08-17T02:56:11.968Z,84.98
2022-08-17T02:58:39.003Z,84.49
2022-08-17T03:01:07.880Z,85.27
2022-08-17T03:03:36.054Z,85.93
2022-08-17T03:06:03.773Z,85.03
2022-08-17T03:08:30.697Z,84.59
2022-08-17T03:10:57.800Z,84.87
2022-08-17T03:13:24.601Z,86.10
2022-08-17T03:15:51.831Z,83.98
2022-08-17T03:18:24.547Z,83.62
2022-08-17T03:20:58.347Z,82.95
2022-08-17T03:23:26.279Z,82.27
2022-08-17T03:25:55.019Z,83.07
2022-08-17T03:28:23.318Z,82.04
2022-08-17T03:30:51.317Z,83.23
2022-08-17T03:33:19.004Z,82.97
2022-08-17T03:35:46.044Z,82.83
2022-08-17T03:38:14.993Z,80.68
2022-08-17T03:40:58.021Z,82.34
2022-08-17T03:43:29.714Z,83.54
2022-08-17T03:46:28.248Z,82.05
2022-08-17T03:49:22.796Z,82.58
2022-08-17T03:52:08.001Z,83.76
2022-08-17T03:54:53.642Z,84.01
2022-08-17T03:57:20.525Z,84.20
2022-08-17T03:59:47.931Z,84.34
2022-08-17T04:02:29.003Z,84.75
2022-08-17T04:04:56.314Z,85.93
2022-08-17T04:07:25.260Z,85.42
2022-08-17T04:09:52.107Z,84.58
2022-08-17T04:12:21.808Z,85.08
2022-08-17T04:14:52.625Z,86.12
2022-08-17T04:17:27.792Z,85.30
2022-08-17T04:19:55.517Z,84.99
2022-08-17T04:22:30.333Z,86.64
2022-08-17T04:25:17.722Z,86.54
2022-08-17T04:27:44.576Z,87.00
2022-08-17T04:30:12.522Z,87.36
2022-08-17T04:33:06.006Z,85.18
2022-08-17T04:35:39.711Z,86.27
2022-08-17T04:38:08.425Z,85.97
2022-08-17T04:40:54.197Z,84.85
2022-08-17T04:43:23.298Z,85.72
2022-08-17T04:45:57.136Z,85.45
2022-08-17T04:48:34.750Z,84.34
2022-08-17T04:51:07.255Z,84.88
2022-08-17T04:53:34.091Z,84.60
2022-08-17T04:56:00.970Z,84.70
2022-08-17T04:58:27.890Z,84.76
2022-08-17T05:00:54.845Z,83.34
2022-08-17T05:03:21.694Z,84.70
2022-08-17T05:05:49.814Z,84.41
2022-08-17T05:08:18.714Z,85.71
2022-08-17T05:10:45.920Z,85.08
2022-08-17T05:13:18.717Z,85.08
2022-08-17T05:15:47.592Z,85.55
2022-08-17T05:18:15.302Z,85.57
2022-08-17T05:20:42.916Z,85.04
2022-08-17T05:23:13.105Z,83.96
2022-08-17T05:25:43.221Z,83.84
2022-08-17T05:28:16.460Z,84.29
2022-08-17T05:30:44.419Z,83.91
2022-08-17T05:33:32.555Z,84.34
2022-08-17T05:36:00.488Z,83.98
2022-08-17T05:38:29.276Z,83.39
2022-08-17T05:40:56.748Z,84.92
2022-08-17T05:43:27.292Z,83.71
2022-08-17T05:46:06.332Z,83.68
2022-08-17T05:48:42.953Z,84.47
2022-08-17T05:51:31.838Z,84.99
2022-08-17T05:54:08.100Z,83.92
2022-08-17T05:56:53.653Z,82.21
2022-08-17T05:59:39.224Z,84.92
2022-08-17T06:02:19.271Z,84.72
2022-08-17T06:04:49.026Z,83.83
2022-08-17T06:07:27.060Z,83.60
2022-08-17T06:09:54.011Z,83.68
2022-08-17T06:12:38.845Z,82.98
2022-08-17T06:15:15.102Z,83.30
2022-08-17T06:17:43.119Z,83.59
2022-08-17T06:20:13.064Z,83.55
2022-08-17T06:22:46.536Z,83.76
2022-08-17T06:25:44.671Z,83.14
2022-08-17T06:28:14.759Z,81.90
2022-08-17T06:30:59.406Z,81.06
2022-08-17T06:33:32.312Z,80.26
2022-08-17T06:36:19.357Z,80.61
2022-08-17T06:39:04.700Z,80.87
2022-08-17T06:41:54.754Z,80.74
2022-08-17T06:44:43.508Z,79.41
2022-08-17T06:47:36.623Z,79.39
2022-08-17T06:50:05.867Z,79.44
2022-08-17T06:52:42.450Z,80.23
2022-08-17T06:55:26.557Z,79.65
2022-08-17T06:57:58.275Z,78.83
2022-08-17T07:00:33.703Z,79.93
2022-08-17T07:03:35.815Z,80.09
2022-08-17T07:06:11.777Z,80.49
2022-08-17T07:08:47.765Z,80.14
2022-08-17T07:11:31.809Z,79.36
2022-08-17T07:14:17.634Z,78.61
2022-08-17T07:16:47.922Z,79.60
2022-08-17T07:19:16.876Z,79.36
2022-08-17T07:21:43.590Z,78.15
2022-08-17T07:24:29.195Z,78.51
2022-08-17T07:27:28.044Z,78.17
2022-08-17T07:29:58.194Z,77.74
2022-08-17T07:32:53.493Z,77.98
2022-08-17T07:35:31.310Z,78.94
2022-08-17T07:38:24.988Z,76.95
2022-08-17T07:41:02.678Z,77.61
2022-08-17T07:43:41.887Z,78.03
2022-08-17T07:46:30.376Z,76.65
2022-08-17T07:49:23.431Z,77.08
2022-08-17T07:51:50.567Z,77.65
2022-08-17T07:54:22.866Z,75.57
2022-08-17T07:56:55.333Z,75.23
2022-08-17T07:59:24.075Z,73.06
2022-08-17T08:01:58.115Z,73.81
2022-08-17T08:04:58.835Z,73.11
2022-08-17T08:07:17.357Z,73.91
2022-08-17T08:10:04.269Z,72.24
2022-08-17T08:12:37.910Z,73.37
2022-08-17T08:15:17.350Z,71.74
2022-08-17T08:17:57.615Z,72.81
2022-08-17T08:20:53.420Z,71.19
2022-08-17T08:23:37.125Z,71.09
2022-08-17T08:26:18.622Z,69.39
2022-08-17T08:29:12.615Z,68.30
2022-08-17T08:32:17.448Z,68.42
2022-08-17T08:35:01.547Z,70.08
2022-08-17T08:37:56.263Z,69.78
2022-08-17T08:40:35.690Z,70.40
2022-08-17T08:43:06.027Z,66.95
2022-08-17T08:45:57.834Z,66.78
2022-08-17T08:48:53.667Z,63.69
2022-08-17T08:51:36.169Z,63.14
2022-08-17T08:54:31.592Z,61.99
2022-08-17T08:57:24.315Z,62.76
2022-08-17T09:00:02.572Z,64.25
2022-08-17T09:02:38.609Z,62.96
2022-08-17T09:05:30.118Z,63.69
2022-08-17T09:08:31.857Z,63.87
2022-08-17T09:11:31.099Z,59.28
2022-08-17T09:14:28.337Z,56.81
2022-08-17T09:17:02.270Z,56.65
2022-08-17T09:19:34.374Z,55.33
2022-08-17T09:22:11.102Z,53.52
2022-08-17T09:25:07.594Z,53.60
2022-08-17T09:27:48.886Z,52.79
2022-08-17T09:30:16.218Z,51.58
2022-08-17T09:32:46.136Z,52.35
2022-08-17T09:35:25.183Z,55.68
2022-08-17T09:38:34.545Z,54.99
2022-08-17T09:41:18.287Z,53.69
2022-08-17T09:44:23.317Z,53.04
2022-08-17T09:46:58.749Z,51.32
2022-08-17T09:49:30.738Z,51.84
2022-08-17T09:52:19.575Z,51.17
2022-08-17T09:54:47.330Z,51.28
2022-08-17T09:57:30.269Z,52.01
2022-08-17T10:00:16.712Z,49.83
2022-08-17T10:03:16.454Z,50.82
2022-08-17T10:05:46.638Z,49.00
2022-08-17T10:08:28.871Z,54.13
2022-08-17T10:11:09.051Z,52.65
2022-08-17T10:13:53.723Z,51.16
2022-08-17T10:16:32.138Z,50.34
2022-08-17T10:19:23.401Z,53.78
2022-08-17T10:22:26.421Z,48.97
2022-08-17T10:25:22.537Z,51.26
2022-08-17T10:28:04.736Z,50.28
2022-08-17T10:30:33.879Z,50.56
2022-08-17T10:33:07.222Z,49.34
2022-08-17T10:35:46.111Z,50.39
2022-08-17T10:38:24.600Z,48.53
2022-08-17T10:41:00.759Z,48.97
2022-08-17T10:43:33.512Z,50.20
2022-08-17T10:46:10.531Z,48.56
2022-08-17T10:49:16.750Z,47.10
2022-08-17T10:51:52.974Z,49.52
2022-08-17T10:54:25.777Z,47.68
2022-08-17T10:56:54.500Z,48.87
2022-08-17T10:59:36.466Z,49.79
2022-08-17T11:02:18.423Z,47.99
2022-08-17T11:05:00.511Z,49.02
2022-08-17T11:07:48.595Z,49.01
2022-08-17T11:10:33.545Z,49.03
2022-08-17T11:13:01.418Z,49.47
2022-08-17T11:15:50.608Z,48.67
2022-08-17T11:18:26.450Z,50.34
2022-08-17T11:21:16.269Z,47.76
2022-08-17T11:24:05.184Z,45.77
2022-08-17T11:26:34.303Z,50.03
2022-08-17T11:29:05.378Z,46.17
2022-08-17T11:31:45.042Z,44.74
2022-08-17T11:34:21.672Z,45.97
2022-08-17T11:37:01.900Z,47.46
2022-08-17T11:39:34.555Z,47.65
2022-08-17T11:42:20.079Z,45.60
2022-08-17T11:44:50.700Z,45.31
2022-08-17T11:48:16.086Z,46.93
2022-08-17T11:51:03.915Z,47.58
2022-08-17T11:53:37.314Z,46.35
2022-08-17T11:56:30.272Z,46.64
2022-08-17T11:58:57.478Z,47.01
2022-08-17T12:01:26.968Z,44.67
2022-08-17T12:03:58.982Z,46.46
2022-08-17T12:06:45.256Z,45.50
2022-08-17T12:09:22.418Z,44.61
2022-08-17T12:11:58.699Z,43.50
2022-08-17T12:15:07.983Z,44.13
2022-08-17T12:17:41.107Z,45.05
2022-08-17T12:20:21.525Z,45.38
2022-08-17T12:22:53.536Z,45.75
2022-08-17T12:25:33.229Z,43.47
2022-08-17T12:28:06.913Z,45.62
2022-08-17T12:30:35.721Z,43.21
2022-08-17T12:33:02.587Z,43.64
2022-08-17T12:35:35.942Z,44.18
2022-08-17T12:38:04.469Z,42.17
2022-08-17T12:40:32.611Z,41.31
2022-08-17T12:43:08.601Z,41.85
2022-08-17T12:45:41.866Z,38.34
2022-08-17T12:48:12.462Z,39.80
2022-08-17T12:50:42.472Z,38.75
2022-08-17T12:53:15.140Z,38.38
2022-08-17T12:55:43.163Z,40.23
2022-08-17T12:58:18.845Z,38.69
2022-08-17T13:00:49.688Z,39.09
2022-08-17T13:03:19.416Z,36.18
2022-08-17T13:05:52.492Z,39.16
2022-08-17T13:08:23.658Z,34.81
2022-08-17T13:10:58.349Z,35.22
2022-08-17T13:13:29.369Z,35.14
2022-08-17T13:16:02.343Z,33.17
2022-08-17T13:18:45.956Z,33.31
2022-08-17T13:21:28.138Z,33.58
2022-08-17T13:24:07.801Z,37.41
2022-08-17T13:26:38.265Z,39.81
2022-08-17T13:29:07.850Z,39.76
2022-08-17T13:31:52.788Z,38.98
2022-08-17T13:34:27.016Z,38.20
2022-08-17T13:37:29.920Z,35.86
2022-08-17T13:40:02.751Z,39.09
2022-08-17T13:42:55.467Z,36.27
2022-08-17T13:45:35.676Z,36.90
2022-08-17T13:48:08.518Z,32.30
2022-08-17T13:50:42.941Z,34.62
2022-08-17T13:53:27.079Z,31.74
2022-08-17T13:56:01.071Z,31.68
2022-08-17T13:58:35.950Z,32.94
2022-08-17T14:01:28.474Z,31.11
2022-08-17T14:03:56.415Z,31.92
2022-08-17T14:06:53.187Z,31.24
2022-08-17T14:09:12.568Z,31.87
2022-08-17T14:11:39.753Z,33.09
2022-08-17T14:14:06.713Z,33.56
2022-08-17T14:16:33.551Z,31.64
2022-08-17T14:19:00.510Z,31.49
2022-08-17T14:21:27.401Z,31.53
2022-08-17T14:23:55.110Z,32.79
2022-08-17T14:26:22.046Z,29.71
2022-08-17T14:28:56.588Z,33.70
2022-08-17T14:31:24.391Z,32.44
2022-08-17T14:33:52.072Z,30.63
2022-08-17T14:36:18.965Z,31.24
2022-08-17T14:38:45.910Z,31.19
2022-08-17T14:41:12.764Z,30.00
2022-08-17T14:43:39.973Z,29.28
2022-08-17T14:46:06.930Z,29.91
2022-08-17T14:48:35.870Z,29.35
2022-08-17T14:51:04.323Z,28.16
2022-08-17T14:53:31.160Z,29.21
2022-08-17T14:55:58.104Z,29.57
2022-08-17T14:58:26.041Z,28.85
2022-08-17T15:00:53.433Z,27.38
2022-08-17T15:03:20.339Z,28.89
2022-08-17T15:05:47.354Z,28.74
2022-08-17T15:08:14.835Z,27.82
2022-08-17T15:10:41.744Z,26.28
2022-08-17T15:13:27.550Z,26.60
2022-08-17T15:15:54.592Z,26.33
2022-08-17T15:18:21.591Z,28.54
2022-08-17T15:20:50.073Z,27.78
2022-08-17T15:23:20.573Z,28.50
2022-08-17T15:25:49.394Z,27.21
2022-08-17T15:28:16.669Z,28.26
2022-08-17T15:30:44.985Z,25.90
2022-08-17T15:33:20.513Z,30.42
2022-08-17T15:35:50.788Z,27.69
2022-08-17T15:38:18.556Z,29.13
2022-08-17T15:40:50.385Z,29.66
2022-08-17T15:43:24.938Z,29.95
2022-08-17T15:46:04.531Z,30.43
2022-08-17T15:48:42.582Z,31.19
2022-08-17T15:51:20.817Z,30.84
2022-08-17T15:53:50.783Z,31.39
2022-08-17T15:56:17.868Z,31.81
2022-08-17T15:58:46.710Z,33.04
2022-08-17T16:01:18.346Z,31.40
2022-08-17T16:04:05.097Z,31.25
2022-08-17T16:06:34.699Z,31.69
2022-08-17T16:09:01.553Z,30.93
2022-08-17T16:11:28.418Z,32.14
2022-08-17T16:13:56.051Z,32.37
2022-08-17T16:16:23.767Z,31.93
2022-08-17T16:18:53.536Z,33.97
2022-08-17T16:21:26.783Z,32.01
2022-08-17T16:23:59.273Z,30.78
2022-08-17T16:26:27.824Z,32.83
2022-08-17T16:28:55.550Z,33.63
2022-08-17T16:31:22.629Z,33.78
2022-08-17T16:34:15.460Z,34.31
2022-08-17T16:36:38.083Z,34.81
2022-08-17T16:39:04.877Z,36.59
2022-08-17T16:41:44.471Z,36.30
2022-08-17T16:44:19.567Z,37.88
2022-08-17T16:46:48.228Z,37.71
2022-08-17T16:49:35.865Z,38.47
2022-08-17T16:52:04.910Z,38.23
2022-08-17T16:54:31.930Z,39.26
2022-08-17T16:56:58.922Z,40.05
2022-08-17T16:59:38.762Z,41.09
2022-08-17T17:02:11.392Z,40.64
2022-08-17T17:04:50.409Z,41.37
2022-08-17T17:07:26.198Z,41.92
2022-08-17T17:09:55.536Z,42.89
2022-08-17T17:12:59.729Z,42.72
2022-08-17T17:15:10.783Z,43.23
2022-08-17T17:17:39.853Z,43.14
2022-08-17T17:20:12.143Z,43.65
2022-08-17T17:23:04.604Z,45.07
2022-08-17T17:25:57.400Z,44.03
2022-08-17T17:28:33.551Z,44.88
2022-08-17T17:31:11.936Z,45.75
2022-08-17T17:33:45.172Z,45.84
2022-08-17T17:36:30.129Z,46.04
2022-08-17T17:39:31.907Z,46.33
2022-08-17T17:42:00.004Z,47.07
2022-08-17T17:44:48.608Z,47.62
2022-08-17T17:47:16.652Z,49.00
2022-08-17T17:49:45.516Z,49.86
2022-08-17T17:52:21.049Z,49.28
2022-08-17T17:54:58.552Z,48.82
2022-08-17T17:57:46.939Z,49.50
2022-08-17T18:00:17.751Z,50.12
2022-08-17T18:02:51.406Z,50.18
2022-08-17T18:05:36.613Z,50.71
2022-08-17T18:08:12.293Z,52.06
2022-08-17T18:10:48.948Z,52.80
2022-08-17T18:13:21.208Z,52.34
2022-08-17T18:15:54.186Z,53.09
2022-08-17T18:18:38.400Z,53.15
2022-08-17T18:21:19.527Z,53.40
2022-08-17T18:23:49.697Z,52.24
2022-08-17T18:26:45.136Z,52.14
2022-08-17T18:29:27.611Z,51.96
2022-08-17T18:32:29.944Z,53.36
2022-08-17T18:35:27.975Z,52.83
2022-08-17T18:38:20.445Z,54.38
2022-08-17T18:40:58.315Z,52.06
2022-08-17T18:43:44.447Z,54.52
2022-08-17T18:46:35.305Z,54.62
2022-08-17T18:49:24.225Z,55.59
2022-08-17T18:52:09.224Z,55.20
2022-08-17T18:54:39.151Z,55.23
2022-08-17T18:57:07.233Z,55.10
2022-08-17T18:59:49.821Z,54.85
2022-08-17T19:02:34.581Z,56.13
2022-08-17T19:05:26.407Z,55.91
2022-08-17T19:07:53.628Z,56.65
2022-08-17T19:10:28.336Z,55.67
2022-08-17T19:13:12.779Z,56.62
2022-08-17T19:16:13.841Z,55.84
2022-08-17T19:18:43.869Z,55.35
2022-08-17T19:21:18.890Z,55.54
2022-08-17T19:23:53.445Z,53.37
2022-08-17T19:26:55.457Z,56.03
2022-08-17T19:29:19.538Z,56.47
2022-08-17T19:31:49.651Z,56.62
2022-08-17T19:34:17.556Z,54.87
2022-08-17T19:37:15.505Z,57.35
2022-08-17T19:40:51.216Z,58.03
2022-08-17T19:44:03.567Z,57.69
2022-08-17T19:46:35.590Z,59.03
2022-08-17T19:49:11.841Z,58.37
2022-08-17T19:51:57.318Z,58.64
2022-08-17T19:54:31.458Z,59.12
2022-08-17T19:57:11.855Z,57.21
2022-08-17T19:59:38.646Z,58.07
2022-08-17T20:02:25.934Z,59.71
2022-08-17T20:04:55.589Z,59.96
2022-08-17T20:07:26.834Z,59.02
2022-08-17T20:10:07.972Z,57.76
2022-08-17T20:12:38.413Z,57.86
2022-08-17T20:15:10.075Z,58.24
2022-08-17T20:17:41.088Z,57.10
2022-08-17T20:20:26.223Z,56.32
2022-08-17T20:23:04.886Z,56.17
2022-08-17T20:25:38.641Z,56.47
2022-08-17T20:28:16.555Z,56.10
2022-08-17T20:30:44.114Z,56.10
2022-08-17T20:33:29.559Z,57.24
2022-08-17T20:36:26.398Z,56.22
2022-08-17T20:38:57.016Z,58.57
2022-08-17T20:41:24.759Z,58.10
2022-08-17T20:43:58.434Z,59.56
2022-08-17T20:46:37.718Z,59.09
2022-08-17T20:49:19.813Z,59.13
2022-08-17T20:52:00.758Z,58.75
2022-08-17T20:54:40.931Z,58.73
2022-08-17T20:57:14.098Z,59.52
2022-08-17T20:59:45.138Z,58.33
2022-08-17T21:02:20.889Z,58.12
2022-08-17T21:04:50.526Z,59.20
2022-08-17T21:07:49.331Z,59.41
2022-08-17T21:10:31.044Z,59.41
2022-08-17T21:13:16.040Z,57.22
2022-08-17T21:16:16.609Z,58.91
2022-08-17T21:18:54.322Z,58.34
2022-08-17T21:21:33.791Z,58.32
2022-08-17T21:24:34.715Z,58.86
2022-08-17T21:27:23.144Z,59.44
2022-08-17T21:30:05.150Z,61.23
2022-08-17T21:32:35.576Z,60.55
2022-08-17T21:35:11.427Z,60.03
2022-08-17T21:37:42.619Z,61.65
2022-08-17T21:40:18.627Z,62.44
2022-08-17T21:42:55.181Z,60.77
2022-08-17T21:45:30.222Z,59.37
2022-08-17T21:48:15.264Z,59.55
2022-08-17T21:50:45.029Z,59.46
2022-08-17T21:53:21.790Z,59.68
2022-08-17T21:55:52.305Z,60.48
2022-08-17T21:58:40.431Z,59.31
2022-08-17T22:01:12.542Z,60.81
2022-08-17T22:03:40.742Z,60.10
2022-08-17T22:06:52.502Z,62.61
2022-08-17T22:10:10.917Z,62.66
2022-08-17T22:12:37.777Z,63.27
2022-08-17T22:15:07.457Z,63.07
2022-08-17T22:17:44.981Z,60.66
2022-08-17T22:20:17.790Z,61.77
2022-08-17T22:23:06.531Z,62.52
2022-08-17T22:25:39.409Z,60.59
2022-08-17T22:28:11.724Z,63.27
2022-08-17T22:31:01.732Z,62.45
2022-08-17T22:33:50.409Z,61.69
2022-08-17T22:36:34.527Z,61.69
2022-08-17T22:39:26.036Z,63.81
2022-08-17T22:41:57.101Z,61.36
2022-08-17T22:44:29.524Z,62.60
2022-08-17T22:47:03.748Z,61.77
2022-08-17T22:49:38.528Z,64.06
2022-08-17T22:52:34.509Z,62.86
2022-08-17T22:55:33.408Z,62.91
2022-08-17T22:58:19.585Z,62.10
2022-08-17T23:00:48.287Z,63.77
2022-08-17T23:03:15.083Z,62.65
2022-08-17T23:05:46.290Z,64.38
2022-08-17T23:08:14.129Z,64.84
2022-08-17T23:10:42.024Z,62.74
2022-08-17T23:13:12.020Z,63.90
2022-08-17T23:15:41.975Z,62.32
2022-08-17T23:18:08.899Z,64.96
2022-08-17T23:20:37.420Z,64.02
2022-08-17T23:23:06.789Z,64.50
2022-08-17T23:25:35.043Z,64.51
2022-08-17T23:28:04.939Z,63.27
2022-08-17T23:30:36.412Z,65.35
2022-08-17T23:33:09.373Z,65.62
2022-08-17T23:35:39.665Z,64.48
2022-08-17T23:38:12.614Z,65.06
2022-08-17T23:40:40.436Z,65.81
2022-08-17T23:43:23.569Z,63.39
2022-08-17T23:45:56.257Z,63.85
2022-08-17T23:48:28.440Z,64.48
2022-08-17T23:51:09.264Z,64.53
2022-08-17T23:53:37.455Z,65.15
2022-08-17T23:56:09.261Z,65.41
2022-08-17T23:58:39.329Z,65.35
